Time;durP1;ratioP1;P1;durP2;ratioP2;P2;SDS_P1;SDS_P2;PMS_P1;PMS_P2;Temp;Humidity;BMP_temperature;BMP_pressure;BME280_temperature;BME280_humidity;BME280_pressure;Samples;Min_cycle;Max_cycle;Signal;HPM_P1;HPM_P2
2021/03/24 00:01:25;;;;;;;21.02;13.30;;;4.90;99.90;;;;;;5134968;27;20023;-69
2021/03/24 00:03:51;;;;;;;19.38;12.48;;;4.70;99.90;;;;;;5136376;27;20529;-69
2021/03/24 00:06:17;;;;;;;20.33;12.80;;;4.60;99.90;;;;;;5134534;27;20059;-71
2021/03/24 00:08:43;;;;;;;22.67;13.07;;;4.50;99.90;;;;;;5134373;27;20031;-69
2021/03/24 00:11:09;;;;;;;27.87;14.30;;;4.40;99.90;;;;;;5135633;27;20476;-70
2021/03/24 00:13:35;;;;;;;24.63;12.90;;;4.40;99.90;;;;;;5135743;27;20026;-70
2021/03/24 00:16:02;;;;;;;26.30;15.02;;;4.40;99.90;;;;;;5136082;27;20027;-71
2021/03/24 00:18:29;;;;;;;24.63;14.23;;;4.40;99.90;;;;;;5134560;27;20103;-70
2021/03/24 00:20:55;;;;;;;22.60;13.80;;;4.30;99.90;;;;;;5136007;27;20098;-71
2021/03/24 00:23:21;;;;;;;27.15;14.40;;;4.20;99.90;;;;;;5134759;27;20054;-70
2021/03/24 00:25:47;;;;;;;25.77;13.82;;;4.10;99.90;;;;;;5134287;27;20080;-70
2021/03/24 00:28:13;;;;;;;21.40;13.80;;;4.10;99.90;;;;;;5135807;27;20391;-70
2021/03/24 00:30:42;;;;;;;24.80;13.98;;;4.10;99.90;;;;;;5135061;27;20413;-70
2021/03/24 00:33:10;;;;;;;22.60;13.55;;;4.00;99.90;;;;;;5134389;27;20031;-69
2021/03/24 00:35:36;;;;;;;25.48;13.48;;;4.00;99.90;;;;;;5136090;27;20041;-69
2021/03/24 00:38:02;;;;;;;25.40;13.47;;;4.00;99.90;;;;;;5134228;27;20122;-69
2021/03/24 00:40:31;;;;;;;25.20;12.80;;;4.00;99.90;;;;;;5134006;27;20059;-69
2021/03/24 00:42:57;;;;;;;18.15;10.77;;;4.20;99.90;;;;;;5133862;27;20057;-69
2021/03/24 00:45:23;;;;;;;17.20;9.63;;;4.10;99.90;;;;;;5134035;27;20019;-68
2021/03/24 00:47:49;;;;;;;16.43;10.10;;;4.00;99.90;;;;;;5133994;27;20027;-69
2021/03/24 00:50:17;;;;;;;17.00;10.00;;;3.80;99.90;;;;;;5134978;27;20023;-70
2021/03/24 00:52:44;;;;;;;22.40;9.85;;;3.80;99.90;;;;;;5134805;27;20023;-70
2021/03/24 00:55:10;;;;;;;17.83;9.30;;;3.70;99.90;;;;;;5133485;27;20387;-70
2021/03/24 00:57:36;;;;;;;;;;;3.70;99.90;;;;;;5135339;27;20356;-68
2021/03/24 01:00:04;;;;;;;17.13;9.70;;;3.70;99.90;;;;;;5134777;27;19903;-70
2021/03/24 01:02:30;;;;;;;18.17;9.43;;;3.70;99.90;;;;;;5134432;27;20410;-70
2021/03/24 01:04:55;;;;;;;13.40;9.10;;;3.60;99.90;;;;;;5134696;27;20026;-70
2021/03/24 01:07:21;;;;;;;13.77;8.40;;;3.60;99.90;;;;;;5134887;27;20062;-70
2021/03/24 01:09:47;;;;;;;15.47;9.23;;;3.60;99.90;;;;;;5134386;27;20019;-70
2021/03/24 01:12:12;;;;;;;17.17;9.17;;;3.60;99.90;;;;;;5136791;27;20023;-69
2021/03/24 01:14:38;;;;;;;15.93;8.43;;;3.50;99.90;;;;;;5141637;27;20020;-70
2021/03/24 01:17:04;;;;;;;13.80;8.43;;;3.50;99.90;;;;;;5143695;27;20099;-70
2021/03/24 01:19:30;;;;;;;16.95;8.85;;;3.40;99.90;;;;;;5141979;27;20102;-70
2021/03/24 01:21:56;;;;;;;13.93;8.20;;;3.50;99.90;;;;;;5140149;27;20103;-71
2021/03/24 01:24:21;;;;;;;16.43;8.33;;;3.40;99.90;;;;;;5141350;27;20340;-70
2021/03/24 01:26:47;;;;;;;13.30;7.50;;;3.50;99.90;;;;;;5138127;27;20429;-69
2021/03/24 01:29:12;;;;;;;13.13;7.73;;;3.50;99.90;;;;;;5133537;27;20118;-70
2021/03/24 01:31:38;;;;;;;13.23;7.97;;;3.50;99.90;;;;;;5135289;27;20030;-68
2021/03/24 01:34:04;;;;;;;13.77;7.60;;;3.40;99.90;;;;;;5139224;27;20560;-70
2021/03/24 01:36:29;;;;;;;14.80;8.33;;;3.40;99.90;;;;;;5138266;27;20019;-69
2021/03/24 01:38:56;;;;;;;15.67;8.33;;;3.40;99.90;;;;;;5139714;27;20071;-70
2021/03/24 01:41:24;;;;;;;14.48;8.40;;;3.40;99.90;;;;;;5139476;27;20275;-70
2021/03/24 01:43:50;;;;;;;13.02;8.00;;;3.40;99.90;;;;;;5135674;28;20105;-70
2021/03/24 01:46:19;;;;;;;16.30;8.27;;;3.40;99.90;;;;;;5133783;28;20076;-69
2021/03/24 01:49:10;;;;;;;15.50;8.35;;;3.40;99.90;;;;;;5135096;28;20031;-69
2021/03/24 01:51:40;;;;;;;15.48;7.75;;;3.40;99.90;;;;;;5133207;28;20594;-70
2021/03/24 01:54:09;;;;;;;15.88;8.82;;;3.40;99.90;;;;;;5134804;27;20440;-70
2021/03/24 01:56:36;;;;;;;14.75;8.07;;;3.40;99.90;;;;;;5133098;28;20019;-70
2021/03/24 01:59:02;;;;;;;13.43;8.05;;;3.40;99.90;;;;;;5134816;28;20021;-70
2021/03/24 02:01:28;;;;;;;12.85;7.65;;;3.30;99.90;;;;;;5134613;28;20016;-70
2021/03/24 02:03:54;;;;;;;12.63;8.80;;;3.30;99.90;;;;;;5133756;28;20031;-70
2021/03/24 02:06:26;;;;;;;13.85;8.50;;;3.30;99.90;;;;;;5132827;28;20088;-70
2021/03/24 02:09:04;;;;;;;12.95;8.13;;;3.30;99.90;;;;;;5132915;28;20118;-70
2021/03/24 02:11:54;;;;;;;18.40;8.73;;;3.30;99.90;;;;;;5134323;28;20019;-70
2021/03/24 02:14:27;;;;;;;13.35;8.13;;;3.30;99.90;;;;;;5133998;27;20027;-69
2021/03/24 02:16:55;;;;;;;16.63;8.80;;;3.30;99.90;;;;;;5134050;28;20019;-70
2021/03/24 02:20:00;;;;;;;19.33;8.73;;;3.30;99.90;;;;;;5132807;28;20061;-69
2021/03/24 02:22:29;;;;;;;15.52;9.00;;;3.30;99.90;;;;;;5122023;27;20038;-69
2021/03/24 02:25:04;;;;;;;13.75;8.60;;;3.30;99.90;;;;;;5137701;27;20060;-69
2021/03/24 02:27:39;;;;;;;15.82;8.68;;;3.30;99.90;;;;;;5136365;27;20027;-70
2021/03/24 02:30:10;;;;;;;13.93;8.38;;;3.40;99.90;;;;;;5136230;27;20024;-69
2021/03/24 02:32:40;;;;;;;13.88;8.25;;;3.40;99.90;;;;;;5137423;27;20163;-70
2021/03/24 02:35:13;;;;;;;15.63;8.25;;;3.50;99.90;;;;;;5137749;27;20067;-69
2021/03/24 02:37:40;;;;;;;16.60;8.45;;;3.50;99.90;;;;;;5136033;27;20023;-70
2021/03/24 02:40:09;;;;;;;16.85;8.60;;;3.50;99.90;;;;;;5137384;27;20023;-69
2021/03/24 02:42:39;;;;;;;14.90;8.73;;;3.50;99.90;;;;;;5137812;27;20062;-69
2021/03/24 02:45:09;;;;;;;14.57;8.35;;;3.40;99.90;;;;;;5137747;27;20023;-69
2021/03/24 02:47:36;;;;;;;17.75;8.57;;;3.30;99.90;;;;;;5137483;27;20031;-70
2021/03/24 02:50:04;;;;;;;14.68;8.88;;;3.20;99.90;;;;;;5136115;27;20023;-69
2021/03/24 02:52:30;;;;;;;14.23;8.52;;;3.20;99.90;;;;;;5137294;27;20031;-69
2021/03/24 02:54:56;;;;;;;15.85;8.65;;;3.20;99.90;;;;;;5137260;27;20471;-69
2021/03/24 02:57:22;;;;;;;14.63;8.38;;;3.20;99.90;;;;;;5137111;27;20027;-69
2021/03/24 02:59:51;;;;;;;16.57;8.37;;;3.10;99.90;;;;;;5135571;27;20023;-69
2021/03/24 03:02:23;;;;;;;15.65;9.15;;;3.10;99.90;;;;;;5135555;27;20038;-70
2021/03/24 03:05:13;;;;;;;15.00;8.75;;;3.10;99.90;;;;;;5135538;27;20115;-70
2021/03/24 03:08:03;;;;;;;17.70;8.77;;;3.10;99.90;;;;;;5136332;27;20039;-70
2021/03/24 03:10:44;;;;;;;18.00;9.55;;;3.10;99.90;;;;;;5136965;27;20023;-70
2021/03/24 03:13:32;;;;;;;15.55;8.63;;;3.20;99.90;;;;;;5136735;27;20039;-70
2021/03/24 03:16:06;;;;;;;14.98;8.82;;;3.10;99.90;;;;;;5136955;27;20110;-70
2021/03/24 03:18:38;;;;;;;16.63;9.70;;;3.00;99.90;;;;;;5136514;27;20077;-69
2021/03/24 03:21:16;;;;;;;16.58;10.38;;;2.90;99.90;;;;;;5135507;27;20046;-71
2021/03/24 03:23:43;;;;;;;16.55;9.65;;;2.90;99.90;;;;;;5136163;27;20019;-71
2021/03/24 03:26:17;;;;;;;16.52;9.35;;;2.90;99.90;;;;;;5138365;27;20027;-71
2021/03/24 03:28:46;;;;;;;15.45;7.90;;;2.80;99.90;;;;;;5138246;27;20042;-69
2021/03/24 03:31:18;;;;;;;14.20;8.52;;;2.80;99.90;;;;;;5136510;27;20038;-70
2021/03/24 03:33:49;;;;;;;16.05;8.65;;;2.80;99.90;;;;;;5134338;27;20047;-69
2021/03/24 03:36:14;;;;;;;16.23;8.52;;;2.80;99.90;;;;;;5136977;27;20027;-70
2021/03/24 03:38:42;;;;;;;18.73;11.18;;;2.90;99.90;;;;;;5136581;27;20023;-69
2021/03/24 03:41:11;;;;;;;21.00;11.25;;;3.00;99.90;;;;;;5136537;27;20566;-70
2021/03/24 03:43:40;;;;;;;22.38;11.00;;;2.90;99.90;;;;;;5136216;27;20023;-69
2021/03/24 03:46:06;;;;;;;19.52;10.18;;;2.80;99.90;;;;;;5136510;27;20027;-69
2021/03/24 03:48:32;;;;;;;20.23;10.55;;;2.70;99.90;;;;;;5136130;27;20497;-69
2021/03/24 03:51:03;;;;;;;16.63;9.17;;;2.60;99.90;;;;;;5136396;27;20054;-69
2021/03/24 03:53:52;;;;;;;17.70;9.05;;;2.60;99.90;;;;;;5136290;27;20023;-69
2021/03/24 03:56:25;;;;;;;18.48;9.35;;;2.80;99.90;;;;;;5136779;27;20016;-69
2021/03/24 03:59:12;;;;;;;16.67;9.52;;;3.20;99.90;;;;;;5136583;27;20058;-69
2021/03/24 04:01:45;;;;;;;14.40;9.05;;;3.30;99.90;;;;;;5136124;27;20056;-68
2021/03/24 04:04:25;;;;;;;16.00;9.48;;;3.20;99.90;;;;;;5134626;27;20118;-69
2021/03/24 04:07:13;;;;;;;15.55;8.77;;;3.00;99.90;;;;;;5134953;27;20035;-69
2021/03/24 04:09:40;;;;;;;15.02;8.32;;;2.80;99.90;;;;;;5136852;27;20031;-69
2021/03/24 04:12:12;;;;;;;16.00;9.13;;;2.60;99.90;;;;;;5138076;27;20470;-70
2021/03/24 04:14:40;;;;;;;17.95;8.38;;;2.60;99.90;;;;;;5135936;27;20098;-70
2021/03/24 04:17:09;;;;;;;15.05;8.65;;;2.50;99.90;;;;;;5135562;27;20478;-70
2021/03/24 04:19:38;;;;;;;18.88;9.65;;;2.50;99.90;;;;;;5136818;27;20020;-69
2021/03/24 04:22:04;;;;;;;15.32;8.02;;;2.80;99.90;;;;;;5135221;27;20016;-69
2021/03/24 04:24:34;;;;;;;15.70;8.15;;;3.00;99.90;;;;;;5134074;27;20027;-70
2021/03/24 04:27:02;;;;;;;13.50;8.63;;;2.90;99.90;;;;;;5134029;27;20023;-69
2021/03/24 04:29:38;;;;;;;16.67;8.68;;;2.70;99.90;;;;;;5134077;27;20091;-70
2021/03/24 04:32:05;;;;;;;16.03;8.80;;;2.60;99.90;;;;;;5135308;27;20115;-70
2021/03/24 04:34:32;;;;;;;16.65;8.93;;;2.50;99.90;;;;;;5133820;27;20802;-70
2021/03/24 04:37:03;;;;;;;16.80;8.48;;;2.50;99.90;;;;;;5135047;27;20102;-70
2021/03/24 04:39:40;;;;;;;17.05;9.48;;;2.40;99.90;;;;;;5133581;27;20020;-70
2021/03/24 04:42:24;;;;;;;15.75;9.25;;;2.40;99.90;;;;;;5133702;27;20026;-70
2021/03/24 04:44:55;;;;;;;19.65;10.55;;;2.40;99.90;;;;;;5133928;27;20028;-70
2021/03/24 04:47:30;;;;;;;18.80;10.05;;;2.40;99.90;;;;;;5133819;27;20496;-70
2021/03/24 04:50:00;;;;;;;20.23;10.38;;;2.40;99.90;;;;;;5133784;27;20023;-70
2021/03/24 04:52:28;;;;;;;22.17;10.20;;;2.40;99.90;;;;;;5134762;27;20062;-70
2021/03/24 04:54:57;;;;;;;18.40;8.95;;;2.40;99.90;;;;;;5134586;27;20369;-70
2021/03/24 04:57:25;;;;;;;19.60;9.93;;;2.40;99.90;;;;;;5133227;27;20084;-70
2021/03/24 05:00:03;;;;;;;18.30;9.40;;;2.40;99.90;;;;;;5134603;27;20050;-70
2021/03/24 05:02:32;;;;;;;18.73;9.38;;;2.40;99.90;;;;;;5134484;27;20356;-70
2021/03/24 05:05:19;;;;;;;13.55;8.95;;;2.60;99.90;;;;;;5134721;27;20023;-69
2021/03/24 05:08:01;;;;;;;17.80;8.65;;;2.90;99.90;;;;;;5134509;27;20019;-69
2021/03/24 05:10:30;;;;;;;18.60;9.60;;;2.80;99.90;;;;;;5132832;27;20062;-70
2021/03/24 05:13:03;;;;;;;19.35;9.05;;;2.80;99.90;;;;;;5132940;27;20023;-69
2021/03/24 05:15:34;;;;;;;19.33;9.13;;;3.00;99.90;;;;;;5134237;27;20038;-69
2021/03/24 05:18:01;;;;;;;16.63;9.00;;;3.00;99.90;;;;;;5134417;27;20019;-70
2021/03/24 05:20:54;;;;;;;14.63;7.85;;;2.90;99.90;;;;;;5132803;27;20064;-70
2021/03/24 05:23:22;;;;;;;17.08;8.63;;;2.80;99.90;;;;;;5135728;27;20022;-69
2021/03/24 05:25:57;;;;;;;16.40;9.57;;;2.70;99.90;;;;;;5133677;27;20016;-69
2021/03/24 05:28:34;;;;;;;17.48;9.13;;;2.60;99.90;;;;;;5134183;27;20360;-69
2021/03/24 05:31:15;;;;;;;16.85;9.20;;;2.50;99.90;;;;;;5132944;27;20023;-69
2021/03/24 05:33:45;;;;;;;16.20;8.88;;;2.50;99.90;;;;;;5134085;27;20034;-69
2021/03/24 05:36:39;;;;;;;18.27;8.70;;;2.40;99.90;;;;;;5134198;27;20529;-71
2021/03/24 05:39:13;;;;;;;16.52;9.15;;;2.50;99.90;;;;;;5131024;27;20043;-69
2021/03/24 05:42:18;;;;;;;14.85;8.88;;;2.50;99.90;;;;;;5134074;27;20030;-69
2021/03/24 05:45:11;;;;;;;15.23;7.75;;;2.50;99.90;;;;;;5134158;28;20030;-70
2021/03/24 05:47:54;;;;;;;14.55;8.07;;;2.50;99.90;;;;;;5134103;28;20023;-69
2021/03/24 05:50:34;;;;;;;18.27;10.05;;;2.60;99.90;;;;;;5134009;28;20023;-69
2021/03/24 05:53:21;;;;;;;15.15;7.82;;;2.90;99.90;;;;;;5134304;28;20023;-69
2021/03/24 05:55:55;;;;;;;16.67;8.70;;;2.90;99.90;;;;;;5134092;27;20429;-70
2021/03/24 05:58:42;;;;;;;17.80;9.40;;;2.80;99.90;;;;;;5137515;27;20027;-69
2021/03/24 06:01:08;;;;;;;20.00;11.90;;;2.80;99.90;;;;;;5137223;27;20078;-69
2021/03/24 06:03:57;;;;;;;17.63;9.43;;;2.80;99.90;;;;;;5138526;27;20479;-66
2021/03/24 06:06:45;;;;;;;19.38;10.05;;;2.80;99.90;;;;;;5138264;27;20034;-67
2021/03/24 06:09:13;;;;;;;;;;;2.80;99.90;;;;;;5138527;27;20029;-66
2021/03/24 06:11:52;;;;;;;18.30;9.10;;;2.80;99.90;;;;;;5138168;27;20339;-67
2021/03/24 06:14:55;;;;;;;18.90;9.02;;;2.80;99.90;;;;;;5138536;27;20479;-66
2021/03/24 06:17:48;;;;;;;17.92;9.15;;;2.90;99.90;;;;;;5138025;27;20401;-66
2021/03/24 06:20:44;;;;;;;18.85;9.35;;;3.00;99.90;;;;;;5137955;27;20031;-66
2021/03/24 06:23:47;;;;;;;17.17;9.10;;;3.00;99.90;;;;;;5138094;27;20027;-65
2021/03/24 06:26:52;;;;;;;15.93;8.48;;;3.10;99.90;;;;;;5138118;27;20023;-66
2021/03/24 06:29:24;;;;;;;16.05;8.57;;;3.00;99.90;;;;;;5136616;27;20038;-66
2021/03/24 06:32:33;;;;;;;17.92;8.35;;;3.00;99.90;;;;;;5138104;27;20062;-66
2021/03/24 06:35:18;;;;;;;20.38;9.00;;;3.10;99.90;;;;;;5136548;27;20072;-63
2021/03/24 06:38:14;;;;;;;14.38;8.43;;;3.20;99.90;;;;;;5136094;27;20113;-62
2021/03/24 06:40:58;;;;;;;16.13;8.18;;;3.40;99.90;;;;;;5137645;27;20043;-65
2021/03/24 06:43:42;;;;;;;18.40;9.57;;;3.50;99.90;;;;;;5137512;27;20030;-67
2021/03/24 06:46:49;;;;;;;17.17;8.60;;;3.50;99.90;;;;;;5137631;27;20019;-70
2021/03/24 06:49:21;;;;;;;18.80;8.57;;;3.60;99.90;;;;;;5108021;27;20050;-70
2021/03/24 06:52:21;;;;;;;13.82;7.55;;;3.50;99.90;;;;;;5137995;27;20016;-72
2021/03/24 06:55:05;;;;;;;18.52;9.45;;;3.40;99.90;;;;;;5137369;27;20023;-70
2021/03/24 06:58:07;;;;;;;17.42;8.20;;;3.40;99.90;;;;;;5137392;27;20102;-69
2021/03/24 07:00:51;;;;;;;13.25;7.57;;;3.40;99.90;;;;;;5137936;27;20047;-69
2021/03/24 07:03:54;;;;;;;18.67;9.27;;;3.80;99.90;;;;;;5137575;27;20468;-69
2021/03/24 07:06:32;;;;;;;15.35;8.48;;;3.90;99.90;;;;;;5135473;27;20015;-67
2021/03/24 07:09:33;;;;;;;15.30;8.43;;;4.00;99.90;;;;;;5135891;27;20012;-68
2021/03/24 07:12:25;;;;;;;18.92;9.23;;;3.90;99.90;;;;;;5136924;27;20023;-68
2021/03/24 07:15:11;;;;;;;27.77;17.27;;;3.90;99.90;;;;;;5138571;27;20058;-70
2021/03/24 07:17:54;;;;;;;17.35;8.88;;;4.00;99.90;;;;;;5139090;27;20015;-71
2021/03/24 07:20:30;;;;;;;19.10;9.95;;;4.00;99.90;;;;;;5143805;27;20044;-71
2021/03/24 07:23:25;;;;;;;17.05;9.38;;;4.10;99.90;;;;;;5142397;27;20113;-67
2021/03/24 07:26:03;;;;;;;15.40;8.82;;;4.20;99.90;;;;;;5138519;27;20042;-69
2021/03/24 07:28:41;;;;;;;18.48;8.93;;;4.30;99.90;;;;;;5137664;27;20027;-68
2021/03/24 07:31:39;;;;;;;19.73;10.52;;;4.50;99.90;;;;;;5135249;27;20050;-69
2021/03/24 07:34:25;;;;;;;19.75;9.77;;;4.40;99.90;;;;;;5136559;27;20065;-69
2021/03/24 07:37:00;;;;;;;17.77;9.43;;;4.30;99.90;;;;;;5136852;27;20027;-68
2021/03/24 07:39:50;;;;;;;18.00;9.70;;;4.70;99.90;;;;;;5135824;27;20372;-70
2021/03/24 07:42:44;;;;;;;16.67;10.10;;;4.70;99.90;;;;;;5135879;27;20451;-71
2021/03/24 07:45:45;;;;;;;18.63;9.75;;;4.70;99.90;;;;;;5136855;27;20066;-69
2021/03/24 07:48:47;;;;;;;21.67;10.77;;;4.80;99.90;;;;;;5083369;27;20039;-69
2021/03/24 07:51:48;;;;;;;25.27;11.48;;;4.80;99.90;;;;;;5136194;27;20050;-68
2021/03/24 07:54:34;;;;;;;20.35;11.57;;;4.90;99.90;;;;;;5136781;27;20058;-69
2021/03/24 07:57:21;;;;;;;23.50;12.82;;;5.00;99.90;;;;;;5137408;27;20071;-70
2021/03/24 08:00:00;;;;;;;21.30;12.27;;;5.10;99.90;;;;;;5137079;27;20035;-66
2021/03/24 08:02:56;;;;;;;20.17;12.15;;;5.20;99.90;;;;;;5134813;27;20027;-66
2021/03/24 08:05:57;;;;;;;20.17;11.45;;;5.30;99.90;;;;;;5136201;27;20401;-64
2021/03/24 08:08:41;;;;;;;18.60;11.77;;;5.40;99.90;;;;;;5125834;27;20039;-66
2021/03/24 08:11:28;;;;;;;25.83;13.00;;;5.40;99.90;;;;;;5136445;27;20117;-65
2021/03/24 08:14:33;;;;;;;20.55;11.48;;;5.50;99.90;;;;;;5135658;27;20034;-69
2021/03/24 08:17:20;;;;;;;20.00;11.60;;;5.60;99.90;;;;;;5134905;27;20478;-66
2021/03/24 08:20:19;;;;;;;21.73;11.98;;;5.70;99.90;;;;;;5135373;27;20023;-66
2021/03/24 08:22:44;;;;;;;21.08;11.38;;;5.80;99.90;;;;;;5101463;27;20039;-68
2021/03/24 08:25:46;;;;;;;21.70;11.37;;;6.00;99.90;;;;;;5135876;27;20388;-66
2021/03/24 08:28:17;;;;;;;20.23;11.25;;;6.00;99.90;;;;;;5055878;28;20417;-69
2021/03/24 08:30:54;;;;;;;19.67;12.27;;;6.10;99.90;;;;;;5125620;27;20035;-69
2021/03/24 08:33:42;;;;;;;20.60;11.57;;;6.20;99.90;;;;;;5135254;27;20041;-68
2021/03/24 08:36:45;;;;;;;23.45;12.30;;;6.30;99.90;;;;;;5135792;27;20026;-69
2021/03/24 08:39:34;;;;;;;20.40;12.50;;;6.40;99.90;;;;;;5135649;27;20123;-68
2021/03/24 08:42:19;;;;;;;20.80;12.05;;;6.50;99.90;;;;;;5134411;27;20507;-68
2021/03/24 08:45:22;;;;;;;22.33;11.57;;;6.70;99.90;;;;;;5135702;27;20106;-68
2021/03/24 08:47:53;;;;;;;17.98;11.70;;;6.80;99.90;;;;;;5135145;27;20023;-68
2021/03/24 08:50:32;;;;;;;17.42;10.73;;;7.60;99.90;;;;;;5133892;27;20481;-68
2021/03/24 08:53:10;;;;;;;18.45;10.40;;;9.80;99.90;;;;;;5134983;27;20046;-69
2021/03/24 08:56:00;;;;;;;19.75;10.38;;;12.30;98.80;;;;;;5136403;27;20023;-70
2021/03/24 08:58:32;;;;;;;17.27;11.43;;;15.80;90.00;;;;;;5131763;27;20042;-66
2021/03/24 09:01:18;;;;;;;15.13;10.80;;;18.80;67.10;;;;;;5141606;27;20049;-70
2021/03/24 09:04:17;;;;;;;16.53;10.40;;;21.40;52.90;;;;;;5144719;27;20028;-72
2021/03/24 09:07:01;;;;;;;11.60;9.45;;;22.70;46.50;;;;;;5103280;27;20065;-69
2021/03/24 09:09:38;;;;;;;12.43;10.10;;;24.20;43.70;;;;;;5145294;27;20085;-71
2021/03/24 09:12:20;;;;;;;13.38;10.15;;;25.00;41.40;;;;;;5139700;27;20110;-70
2021/03/24 09:14:58;;;;;;;11.30;9.45;;;25.20;39.70;;;;;;5137856;27;20046;-68
2021/03/24 09:17:45;;;;;;;11.10;9.23;;;25.60;38.70;;;;;;5136898;27;20034;-69
2021/03/24 09:20:32;;;;;;;12.15;8.98;;;26.00;38.50;;;;;;5141775;27;20039;-69
2021/03/24 09:23:31;;;;;;;13.20;9.27;;;26.50;37.50;;;;;;5141165;27;20123;-68
2021/03/24 09:26:24;;;;;;;12.15;9.30;;;26.00;37.20;;;;;;5144021;27;20020;-70
2021/03/24 09:29:10;;;;;;;10.40;9.30;;;26.30;37.70;;;;;;5137710;27;20038;-66
2021/03/24 09:32:10;;;;;;;12.20;9.80;;;27.40;36.50;;;;;;5136246;27;20023;-67
2021/03/24 09:35:13;;;;;;;14.85;9.60;;;28.10;35.50;;;;;;5127714;27;20039;-65
2021/03/24 09:37:46;;;;;;;12.95;9.43;;;28.80;34.60;;;;;;5137447;27;20023;-67
2021/03/24 09:40:26;;;;;;;12.02;9.70;;;25.80;36.00;;;;;;5136634;27;20379;-67
2021/03/24 09:42:54;;;;;;;10.85;8.88;;;24.20;37.80;;;;;;5135495;27;20114;-67
2021/03/24 09:45:24;;;;;;;11.95;9.13;;;24.30;38.00;;;;;;5135910;27;20034;-68
2021/03/24 09:47:52;;;;;;;14.45;9.88;;;23.70;38.40;;;;;;5135770;28;20031;-67
2021/03/24 09:50:29;;;;;;;12.75;9.82;;;22.50;39.70;;;;;;5134175;28;20043;-66
2021/03/24 09:53:09;;;;;;;10.88;8.77;;;22.50;40.90;;;;;;5134102;28;20035;-67
2021/03/24 09:55:49;;;;;;;15.38;10.02;;;22.70;40.10;;;;;;5133085;28;20046;-66
2021/03/24 09:58:27;;;;;;;19.23;9.75;;;24.00;39.40;;;;;;5134152;28;20023;-65
2021/03/24 10:00:58;;;;;;;13.25;9.63;;;23.30;39.80;;;;;;5134467;28;20103;-66
2021/03/24 10:03:39;;;;;;;13.10;9.93;;;23.30;39.30;;;;;;5133950;28;20027;-66
2021/03/24 10:06:07;;;;;;;14.18;10.88;;;23.10;40.00;;;;;;5134858;28;20040;-65
2021/03/24 10:08:41;;;;;;;13.98;9.75;;;22.80;40.20;;;;;;5133040;28;20429;-66
2021/03/24 10:11:12;;;;;;;12.63;9.80;;;23.30;39.90;;;;;;5134349;28;20020;-66
2021/03/24 10:13:51;;;;;;;18.00;9.60;;;24.30;38.90;;;;;;5134357;28;20087;-66
2021/03/24 10:16:28;;;;;;;18.67;9.75;;;25.40;37.40;;;;;;5134175;28;20011;-66
2021/03/24 10:19:01;;;;;;;13.32;10.10;;;26.20;36.80;;;;;;5134096;28;20020;-66
2021/03/24 10:21:41;;;;;;;11.45;9.30;;;27.00;35.70;;;;;;5134228;28;20019;-68
2021/03/24 10:24:20;;;;;;;11.88;9.25;;;28.40;35.20;;;;;;5133798;28;20027;-66
2021/03/24 10:26:50;;;;;;;12.32;8.18;;;29.50;33.70;;;;;;5134045;28;20512;-67
2021/03/24 10:29:39;;;;;;;10.95;8.38;;;28.70;36.60;;;;;;5132173;28;20055;-67
2021/03/24 10:32:35;;;;;;;10.10;8.35;;;27.70;34.60;;;;;;5133626;28;20053;-70
2021/03/24 10:35:20;;;;;;;11.25;8.50;;;28.40;34.00;;;;;;5133655;28;20102;-71
2021/03/24 10:38:13;;;;;;;11.18;8.48;;;29.00;33.50;;;;;;5133659;28;20059;-67
2021/03/24 10:40:44;;;;;;;12.88;9.93;;;28.70;33.00;;;;;;5133608;28;20046;-69
2021/03/24 10:43:26;;;;;;;12.68;9.38;;;24.30;36.40;;;;;;5135649;27;20029;-67
2021/03/24 10:46:13;;;;;;;10.43;8.65;;;22.60;39.50;;;;;;5137333;27;20011;-66
2021/03/24 10:48:46;;;;;;;10.32;8.55;;;23.80;38.20;;;;;;5137113;27;20051;-67
2021/03/24 10:51:17;;;;;;;10.65;8.73;;;24.60;37.50;;;;;;5137194;27;20026;-67
2021/03/24 10:53:43;;;;;;;17.88;9.02;;;25.60;36.60;;;;;;5137747;27;20360;-66
2021/03/24 10:56:27;;;;;;;13.88;9.20;;;26.40;35.10;;;;;;5135904;27;20030;-69
2021/03/24 10:59:29;;;;;;;16.63;9.18;;;27.10;34.40;;;;;;5137906;27;20069;-66
2021/03/24 11:02:18;;;;;;;12.95;8.00;;;27.30;35.20;;;;;;5135919;27;20054;-66
2021/03/24 11:04:54;;;;;;;15.45;9.88;;;28.00;34.10;;;;;;5126640;27;20042;-66
2021/03/24 11:07:38;;;;;;;10.93;8.32;;;26.90;33.90;;;;;;5135943;27;20023;-70
2021/03/24 11:10:38;;;;;;;12.98;9.65;;;24.60;36.00;;;;;;5135739;27;20058;-68
2021/03/24 11:13:12;;;;;;;14.63;10.55;;;22.80;38.20;;;;;;5135831;27;20027;-66
2021/03/24 11:15:37;;;;;;;53.33;13.15;;;21.00;41.10;;;;;;5137010;27;20027;-65
2021/03/24 11:18:07;;;;;;;;;;;19.60;43.80;;;;;;5137465;27;20156;-65
2021/03/24 11:20:57;;;;;;;14.23;10.52;;;18.10;46.00;;;;;;5135283;27;19933;-65
2021/03/24 11:23:50;;;;;;;19.73;10.77;;;17.10;48.60;;;;;;5137029;27;20022;-65
2021/03/24 11:26:30;;;;;;;84.93;16.02;;;16.30;51.20;;;;;;5136796;27;20030;-66
2021/03/24 11:29:00;;;;;;;17.27;10.55;;;15.80;53.20;;;;;;5136938;27;20019;-66
2021/03/24 11:31:37;;;;;;;20.80;13.60;;;15.40;54.70;;;;;;5136668;27;20083;-64
2021/03/24 11:34:10;;;;;;;25.58;11.63;;;15.10;56.40;;;;;;5136620;27;20083;-65
2021/03/24 11:36:41;;;;;;;16.00;10.50;;;14.80;58.80;;;;;;5136873;27;20018;-65
2021/03/24 11:39:17;;;;;;;19.92;11.05;;;14.50;60.30;;;;;;5135150;27;20031;-67
2021/03/24 11:41:44;;;;;;;15.27;10.63;;;14.00;61.90;;;;;;5136857;27;20498;-66
2021/03/24 11:44:21;;;;;;;20.58;11.25;;;13.90;65.80;;;;;;5136626;27;20028;-67
2021/03/24 11:46:46;;;;;;;22.35;11.70;;;13.90;68.00;;;;;;5137811;27;20034;-67
2021/03/24 11:49:42;;;;;;;19.38;11.05;;;13.70;67.70;;;;;;5136287;27;20027;-64
2021/03/24 11:52:36;;;;;;;18.55;10.85;;;13.50;71.00;;;;;;5135896;27;20042;-65
2021/03/24 11:55:11;;;;;;;18.20;10.38;;;13.50;72.40;;;;;;5135418;27;20030;-66
2021/03/24 11:57:54;;;;;;;18.52;10.30;;;13.50;74.10;;;;;;5136437;27;20019;-67
2021/03/24 12:00:30;;;;;;;18.80;11.35;;;13.20;76.60;;;;;;5136294;27;20079;-65
2021/03/24 12:03:32;;;;;;;17.67;11.25;;;13.00;78.10;;;;;;5135899;27;20023;-66
2021/03/24 12:06:16;;;;;;;31.80;17.02;;;13.00;81.20;;;;;;5137383;27;20045;-69
2021/03/24 12:09:19;;;;;;;13.75;9.35;;;13.20;81.40;;;;;;5135667;27;20110;-70
2021/03/24 12:11:45;;;;;;;19.65;11.48;;;13.30;79.50;;;;;;5125885;27;20088;-70
2021/03/24 12:14:19;;;;;;;18.75;9.95;;;13.40;79.10;;;;;;5135778;27;20031;-66
2021/03/24 12:16:56;;;;;;;18.13;11.05;;;13.30;78.40;;;;;;5135794;27;20023;-68
2021/03/24 12:19:35;;;;;;;19.30;10.40;;;13.20;79.20;;;;;;5134457;27;20022;-69
2021/03/24 12:22:12;;;;;;;17.92;9.93;;;13.20;79.80;;;;;;5135892;27;20016;-69
2021/03/24 12:24:39;;;;;;;17.40;10.02;;;13.30;80.80;;;;;;5135750;27;20540;-68
2021/03/24 12:27:16;;;;;;;18.40;9.95;;;13.40;79.80;;;;;;5135963;27;20031;-68
2021/03/24 12:30:05;;;;;;;16.15;9.88;;;13.50;79.40;;;;;;5135458;27;20425;-67
2021/03/24 12:32:35;;;;;;;18.38;9.63;;;13.70;76.80;;;;;;5134930;27;20039;-67
2021/03/24 12:35:04;;;;;;;15.63;9.52;;;13.70;77.50;;;;;;5134648;27;20379;-67
2021/03/24 12:37:37;;;;;;;15.30;9.55;;;13.80;77.60;;;;;;5135564;27;20049;-66
2021/03/24 12:40:13;;;;;;;16.30;10.05;;;13.90;77.00;;;;;;5138781;27;20027;-67
2021/03/24 12:42:40;;;;;;;17.23;9.90;;;13.90;73.60;;;;;;5135286;27;20034;-67
2021/03/24 12:45:29;;;;;;;15.90;8.90;;;13.90;72.50;;;;;;5133841;27;20502;-68
2021/03/24 12:48:21;;;;;;;14.25;8.10;;;13.90;72.20;;;;;;5135998;27;20034;-67
2021/03/24 12:50:51;;;;;;;15.60;8.20;;;13.90;71.20;;;;;;5132438;27;20119;-68
2021/03/24 12:53:22;;;;;;;18.00;9.20;;;13.90;71.10;;;;;;5133580;27;20019;-68
2021/03/24 12:56:01;;;;;;;14.13;9.20;;;14.10;71.20;;;;;;5133394;27;20023;-68
2021/03/24 12:58:47;;;;;;;18.75;10.32;;;14.20;70.70;;;;;;5135131;27;20015;-67
2021/03/24 13:01:49;;;;;;;17.42;8.52;;;14.10;70.20;;;;;;5135028;27;20350;-68
2021/03/24 13:04:33;;;;;;;19.85;9.23;;;14.10;70.30;;;;;;5135391;27;20079;-68
2021/03/24 13:07:25;;;;;;;17.83;9.90;;;14.40;67.90;;;;;;5133400;27;20029;-68
2021/03/24 13:10:10;;;;;;;15.18;9.25;;;14.50;68.90;;;;;;5137446;27;20027;-69
2021/03/24 13:13:12;;;;;;;14.20;8.40;;;14.50;66.90;;;;;;5135529;27;20065;-69
2021/03/24 13:15:47;;;;;;;16.45;8.85;;;14.60;68.60;;;;;;5135124;27;20494;-69
2021/03/24 13:18:24;;;;;;;13.73;8.07;;;14.70;68.40;;;;;;5133974;27;20026;-68
2021/03/24 13:21:21;;;;;;;14.25;8.27;;;14.80;65.20;;;;;;5135314;27;20011;-68
2021/03/24 13:24:18;;;;;;;16.88;8.75;;;14.90;64.80;;;;;;5135189;27;20027;-68
2021/03/24 13:26:44;;;;;;;17.20;8.75;;;14.90;68.00;;;;;;5133452;27;20499;-71
2021/03/24 13:29:37;;;;;;;15.50;9.57;;;14.80;66.80;;;;;;5134562;27;20100;-71
2021/03/24 13:32:28;;;;;;;17.85;8.25;;;14.90;69.00;;;;;;5135310;27;20459;-70
2021/03/24 13:35:02;;;;;;;13.50;7.43;;;15.00;64.20;;;;;;5134385;27;20015;-69
2021/03/24 13:37:28;;;;;;;12.75;7.20;;;15.10;62.20;;;;;;5134424;27;20019;-71